Time;durP1;ratioP1;P1;durP2;ratioP2;P2;SDS_P1;SDS_P2;PMS_P1;PMS_P2;Temp;Humidity;BMP_temperature;BMP_pressure;BME280_temperature;BME280_humidity;BME280_pressure;Samples;Min_cycle;Max_cycle;Signal;HPM_P1;HPM_P2
2022/07/29 00:01:47;;;;;;;5.25;1.00;;;;;;;;;;5055244;28;20025;-77
2022/07/29 00:04:13;;;;;;;4.03;1.33;;;;;;;;;;5055668;28;20079;-77
2022/07/29 00:06:40;;;;;;;4.38;1.42;;;;;;;;;;5055193;28;20029;-78
2022/07/29 00:09:06;;;;;;;4.10;0.98;;;;;;;;;;5055267;28;20028;-77
2022/07/29 00:11:32;;;;;;;6.47;0.80;;;;;;;;;;5055103;28;20082;-77
2022/07/29 00:13:58;;;;;;;2.55;1.13;;;;;;;;;;5055325;28;20025;-77
2022/07/29 00:16:24;;;;;;;5.38;0.98;;;;;;;;;;5054845;28;20029;-77
2022/07/29 00:18:50;;;;;;;2.40;0.85;;;;;;;;;;5055327;28;20032;-77
2022/07/29 00:21:16;;;;;;;3.97;0.90;;;;;;;;;;5054698;28;20025;-77
2022/07/29 00:23:42;;;;;;;8.43;1.15;;;;;;;;;;5054942;28;20025;-77
2022/07/29 00:26:08;;;;;;;3.53;0.93;;;;;;;;;;5054914;28;20072;-78
2022/07/29 00:28:34;;;;;;;3.70;0.98;;;;;;;;;;5055171;28;20102;-77
2022/07/29 00:31:00;;;;;;;3.65;0.90;;;;;;;;;;5054862;28;20073;-78
2022/07/29 00:33:26;;;;;;;5.10;1.33;;;;;;;;;;5057658;28;20021;-78
2022/07/29 00:35:52;;;;;;;3.63;0.80;;;;;;;;;;5074881;28;20028;-78
2022/07/29 00:38:20;;;;;;;5.93;1.00;;;;;;;;;;5074553;28;20032;-78
2022/07/29 00:40:46;;;;;;;4.50;1.00;;;;;;;;;;5074740;28;20021;-78
2022/07/29 00:43:13;;;;;;;1.98;0.90;;;;;;;;;;5074659;28;20083;-78
2022/07/29 00:45:39;;;;;;;4.05;1.45;;;;;;;;;;5074896;28;20052;-77
2022/07/29 00:48:06;;;;;;;4.72;1.20;;;;;;;;;;5074528;28;20464;-78
2022/07/29 00:50:32;;;;;;;5.68;1.52;;;;;;;;;;5074483;28;20024;-78
2022/07/29 00:52:59;;;;;;;3.92;0.90;;;;;;;;;;5074424;28;20387;-78
2022/07/29 00:55:25;;;;;;;6.38;1.90;;;;;;;;;;5060001;28;20066;-77
2022/07/29 00:57:52;;;;;;;7.45;1.08;;;;;;;;;;5054268;28;20037;-77
2022/07/29 01:00:20;;;;;;;6.90;1.48;;;;;;;;;;5054326;28;20091;-77
2022/07/29 01:02:50;;;;;;;3.08;0.90;;;;;;;;;;5054221;28;20028;-77
2022/07/29 01:05:18;;;;;;;2.22;1.08;;;;;;;;;;5052870;28;20502;-78
2022/07/29 01:07:45;;;;;;;5.07;1.20;;;;;;;;;;5053937;28;20039;-78
2022/07/29 01:10:12;;;;;;;3.75;1.00;;;;;;;;;;5053507;28;20043;-78
2022/07/29 01:12:39;;;;;;;2.40;0.90;;;;;;;;;;5053847;28;20033;-77
2022/07/29 01:15:06;;;;;;;4.15;0.98;;;;;;;;;;5053830;28;20796;-77
2022/07/29 01:17:32;;;;;;;2.90;0.90;;;;;;;;;;5053810;28;20036;-79
2022/07/29 01:19:59;;;;;;;3.38;1.67;;;;;;;;;;5053791;28;20032;-79
2022/07/29 01:22:34;;;;;;;2.95;1.10;;;;;;;;;;5053763;28;20021;-77
2022/07/29 01:25:03;;;;;;;2.72;1.20;;;;;;;;;;5053615;28;20120;-77
2022/07/29 01:27:38;;;;;;;3.75;1.73;;;;;;;;;;5053991;28;20036;-77
2022/07/29 01:30:04;;;;;;;2.75;1.30;;;;;;;;;;5053696;28;20108;-77
2022/07/29 01:32:33;;;;;;;4.40;1.08;;;;;;;;;;5053684;28;20025;-77
2022/07/29 01:35:08;;;;;;;3.83;1.10;;;;;;;;;;5069653;28;20107;-77
2022/07/29 01:37:40;;;;;;;2.60;1.10;;;;;;;;;;5073495;28;20051;-77
2022/07/29 01:40:08;;;;;;;4.10;1.10;;;;;;;;;;5073875;28;20040;-77
2022/07/29 01:42:36;;;;;;;3.30;1.20;;;;;;;;;;5073400;28;20082;-77
2022/07/29 01:45:14;;;;;;;2.17;1.00;;;;;;;;;;5055828;28;20040;-77
2022/07/29 01:47:56;;;;;;;3.63;1.17;;;;;;;;;;5053302;28;20033;-77
2022/07/29 01:50:22;;;;;;;;;;;;;;;;;;5053859;28;20032;-77
2022/07/29 01:52:59;;;;;;;3.35;1.17;;;;;;;;;;5053450;28;19905;-77
2022/07/29 01:55:27;;;;;;;5.40;1.52;;;;;;;;;;5053299;28;20029;-77
2022/07/29 01:57:54;;;;;;;5.07;1.02;;;;;;;;;;5053298;28;20071;-77
2022/07/29 02:00:20;;;;;;;2.97;1.33;;;;;;;;;;5053308;28;20024;-77
2022/07/29 02:02:47;;;;;;;4.28;1.35;;;;;;;;;;5053111;28;20025;-77
2022/07/29 02:05:15;;;;;;;4.78;1.50;;;;;;;;;;5053446;28;20410;-77
2022/07/29 02:07:42;;;;;;;2.97;1.38;;;;;;;;;;5053156;28;20016;-77
2022/07/29 02:10:09;;;;;;;5.78;1.75;;;;;;;;;;5052872;28;20049;-77
2022/07/29 02:12:36;;;;;;;4.10;1.42;;;;;;;;;;5052868;28;20044;-77
2022/07/29 02:15:03;;;;;;;2.30;1.27;;;;;;;;;;5053099;28;20540;-77
2022/07/29 02:17:42;;;;;;;5.28;1.40;;;;;;;;;;5055677;28;20028;-77
2022/07/29 02:20:09;;;;;;;5.47;1.50;;;;;;;;;;5072429;28;20401;-77
2022/07/29 02:22:37;;;;;;;2.65;1.42;;;;;;;;;;5072206;28;20052;-77
2022/07/29 02:25:04;;;;;;;4.50;1.40;;;;;;;;;;5072723;28;20025;-77
2022/07/29 02:27:31;;;;;;;3.95;1.60;;;;;;;;;;5072633;28;20035;-77
2022/07/29 02:29:58;;;;;;;4.88;1.58;;;;;;;;;;5072678;28;20311;-77
2022/07/29 02:32:25;;;;;;;3.65;1.48;;;;;;;;;;5072511;28;20036;-78
2022/07/29 02:34:51;;;;;;;5.40;2.05;;;;;;;;;;5072484;28;20033;-77
2022/07/29 02:37:18;;;;;;;4.97;1.48;;;;;;;;;;5072477;28;20028;-77
2022/07/29 02:39:45;;;;;;;5.07;1.40;;;;;;;;;;5072330;28;20104;-77
2022/07/29 02:42:13;;;;;;;4.68;1.40;;;;;;;;;;5072496;28;20435;-77
2022/07/29 02:44:39;;;;;;;3.15;1.45;;;;;;;;;;5072612;28;20135;-77
2022/07/29 02:47:31;;;;;;;3.63;1.50;;;;;;;;;;5072576;28;20032;-77
2022/07/29 02:50:01;;;;;;;4.07;1.40;;;;;;;;;;5069886;28;20078;-77
2022/07/29 02:52:31;;;;;;;4.18;1.25;;;;;;;;;;5072519;28;20065;-77
2022/07/29 02:55:00;;;;;;;4.05;1.65;;;;;;;;;;5061610;28;20047;-77
2022/07/29 02:57:26;;;;;;;2.90;1.17;;;;;;;;;;5052594;28;20017;-77
2022/07/29 02:59:53;;;;;;;6.13;1.98;;;;;;;;;;5052502;28;20021;-79
2022/07/29 03:02:20;;;;;;;6.35;1.80;;;;;;;;;;5052436;28;20114;-77
2022/07/29 03:04:48;;;;;;;3.90;1.63;;;;;;;;;;5052714;28;20029;-77
2022/07/29 03:07:15;;;;;;;3.03;1.27;;;;;;;;;;5052176;28;20078;-77
2022/07/29 03:09:42;;;;;;;3.65;1.70;;;;;;;;;;5052691;28;20059;-77
2022/07/29 03:12:08;;;;;;;3.65;1.45;;;;;;;;;;5052384;28;20082;-77
2022/07/29 03:14:35;;;;;;;2.92;1.33;;;;;;;;;;5052144;28;20032;-77
2022/07/29 03:17:02;;;;;;;5.55;1.63;;;;;;;;;;5052459;28;20396;-77
2022/07/29 03:19:28;;;;;;;5.82;2.00;;;;;;;;;;5052213;28;20029;-77
2022/07/29 03:21:56;;;;;;;4.47;1.60;;;;;;;;;;5052474;28;20025;-77
2022/07/29 03:24:32;;;;;;;4.18;1.60;;;;;;;;;;5052049;28;20029;-77
2022/07/29 03:26:58;;;;;;;4.65;1.67;;;;;;;;;;5051076;28;20451;-77
2022/07/29 03:29:25;;;;;;;2.70;1.23;;;;;;;;;;5052037;28;20510;-77
2022/07/29 03:31:51;;;;;;;2.70;1.70;;;;;;;;;;5052448;28;20033;-77
2022/07/29 03:34:17;;;;;;;4.45;1.90;;;;;;;;;;5065841;28;20411;-77
2022/07/29 03:36:43;;;;;;;6.38;1.73;;;;;;;;;;5075135;28;20036;-77
2022/07/29 03:39:09;;;;;;;7.75;1.67;;;;;;;;;;5075995;28;20021;-77
2022/07/29 03:41:37;;;;;;;2.88;1.73;;;;;;;;;;5075927;28;20300;-77
2022/07/29 03:44:03;;;;;;;5.47;2.20;;;;;;;;;;5074388;28;20177;-77
2022/07/29 03:46:30;;;;;;;7.45;1.63;;;;;;;;;;5075900;28;20082;-78
2022/07/29 03:48:59;;;;;;;7.43;2.15;;;;;;;;;;5075996;28;20028;-78
2022/07/29 03:51:26;;;;;;;4.85;1.70;;;;;;;;;;5075814;28;20029;-78
2022/07/29 03:53:52;;;;;;;8.35;1.80;;;;;;;;;;5075656;28;20383;-78
2022/07/29 03:56:21;;;;;;;3.53;1.73;;;;;;;;;;5074038;28;20024;-77
2022/07/29 03:58:47;;;;;;;4.30;1.95;;;;;;;;;;5075786;28;20102;-77
2022/07/29 04:01:14;;;;;;;4.10;1.73;;;;;;;;;;5075526;28;20452;-77
2022/07/29 04:03:40;;;;;;;4.53;1.73;;;;;;;;;;5075735;28;20047;-77
2022/07/29 04:06:07;;;;;;;4.47;1.85;;;;;;;;;;5075708;28;20028;-78
2022/07/29 04:08:33;;;;;;;4.38;1.40;;;;;;;;;;5073872;28;20432;-77
2022/07/29 04:11:00;;;;;;;12.18;2.03;;;;;;;;;;5075389;28;20700;-77
2022/07/29 04:13:26;;;;;;;6.43;1.80;;;;;;;;;;5075200;28;20412;-77
2022/07/29 04:15:52;;;;;;;3.53;1.48;;;;;;;;;;5075338;28;20039;-77
2022/07/29 04:18:18;;;;;;;7.35;2.00;;;;;;;;;;5065462;28;20029;-78
2022/07/29 04:20:44;;;;;;;6.13;1.83;;;;;;;;;;5055257;28;20025;-77
2022/07/29 04:23:10;;;;;;;7.20;1.98;;;;;;;;;;5055117;28;20024;-78
2022/07/29 04:25:40;;;;;;;3.58;1.67;;;;;;;;;;5054867;28;20029;-77
2022/07/29 04:28:07;;;;;;;6.00;2.13;;;;;;;;;;5053828;28;20025;-77
2022/07/29 04:30:33;;;;;;;4.72;1.65;;;;;;;;;;5054984;28;20071;-77
2022/07/29 04:33:00;;;;;;;4.53;2.53;;;;;;;;;;5055285;28;20020;-77
2022/07/29 04:35:26;;;;;;;3.35;1.45;;;;;;;;;;5074114;28;20024;-77
2022/07/29 04:37:52;;;;;;;3.75;1.42;;;;;;;;;;5074833;28;20021;-77
2022/07/29 04:40:19;;;;;;;3.65;1.60;;;;;;;;;;5074947;28;20028;-77
2022/07/29 04:42:45;;;;;;;4.53;1.60;;;;;;;;;;5074773;28;20067;-77
2022/07/29 04:45:11;;;;;;;5.65;1.95;;;;;;;;;;5073938;28;20032;-77
2022/07/29 04:47:37;;;;;;;3.67;1.60;;;;;;;;;;5074619;28;20024;-77
2022/07/29 04:50:05;;;;;;;5.18;1.67;;;;;;;;;;5074723;28;20119;-77
2022/07/29 04:52:31;;;;;;;3.70;1.52;;;;;;;;;;5074680;28;20107;-77
2022/07/29 04:54:57;;;;;;;5.80;1.73;;;;;;;;;;5074688;28;20107;-77
2022/07/29 04:57:23;;;;;;;7.10;1.98;;;;;;;;;;5074250;28;20065;-77
2022/07/29 04:59:49;;;;;;;4.13;1.60;;;;;;;;;;5074628;28;20039;-77
2022/07/29 05:02:15;;;;;;;5.20;2.08;;;;;;;;;;5074315;28;20020;-77
2022/07/29 05:04:41;;;;;;;8.90;2.03;;;;;;;;;;5074228;28;20029;-77
2022/07/29 05:07:07;;;;;;;6.45;2.05;;;;;;;;;;5073969;28;20039;-78
2022/07/29 05:09:33;;;;;;;3.92;1.80;;;;;;;;;;5073975;28;20447;-78
2022/07/29 05:11:59;;;;;;;7.63;1.90;;;;;;;;;;5074074;28;20467;-78
2022/07/29 05:14:25;;;;;;;5.15;1.60;;;;;;;;;;5074046;28;20028;-78
2022/07/29 05:16:52;;;;;;;5.53;1.40;;;;;;;;;;5074170;28;20028;-77
2022/07/29 05:19:18;;;;;;;5.47;1.77;;;;;;;;;;5073998;28;20458;-77
2022/07/29 05:21:47;;;;;;;4.38;1.85;;;;;;;;;;5074094;28;20119;-78
2022/07/29 05:24:13;;;;;;;6.15;1.85;;;;;;;;;;5073835;28;20119;-77
2022/07/29 05:26:40;;;;;;;4.47;1.73;;;;;;;;;;5072360;28;20024;-77
2022/07/29 05:29:06;;;;;;;4.75;1.83;;;;;;;;;;5073723;28;20042;-77
2022/07/29 05:31:33;;;;;;;7.15;1.67;;;;;;;;;;5073423;28;20062;-78
2022/07/29 05:33:59;;;;;;;6.25;1.60;;;;;;;;;;5073392;28;20024;-78
2022/07/29 05:36:25;;;;;;;8.68;1.80;;;;;;;;;;5073822;28;20025;-78
2022/07/29 05:38:51;;;;;;;4.13;1.65;;;;;;;;;;5074006;28;20033;-78
2022/07/29 05:41:18;;;;;;;4.90;1.75;;;;;;;;;;5072278;28;20421;-78
2022/07/29 05:43:44;;;;;;;5.53;1.80;;;;;;;;;;5066711;28;20053;-79
2022/07/29 05:46:10;;;;;;;4.35;1.60;;;;;;;;;;5061461;28;20032;-79
2022/07/29 05:48:36;;;;;;;5.30;1.80;;;;;;;;;;5073720;28;20024;-79
2022/07/29 05:51:03;;;;;;;5.40;1.90;;;;;;;;;;5073464;28;20035;-79
2022/07/29 05:53:29;;;;;;;7.25;2.17;;;;;;;;;;5071887;28;20055;-79
2022/07/29 05:55:55;;;;;;;6.10;1.98;;;;;;;;;;5071975;28;20040;-79
2022/07/29 05:58:21;;;;;;;9.68;2.00;;;;;;;;;;5073523;28;20017;-79
2022/07/29 06:00:47;;;;;;;4.28;1.60;;;;;;;;;;5073429;28;20020;-79
2022/07/29 06:03:13;;;;;;;5.13;1.63;;;;;;;;;;5073242;28;20056;-79
2022/07/29 06:05:39;;;;;;;6.18;1.88;;;;;;;;;;5072913;28;20350;-79
2022/07/29 06:08:06;;;;;;;5.53;1.90;;;;;;;;;;5073427;28;20478;-79
2022/07/29 06:10:32;;;;;;;2.83;1.48;;;;;;;;;;5073136;28;20017;-79
2022/07/29 06:12:58;;;;;;;3.20;1.65;;;;;;;;;;5072946;28;20032;-79
2022/07/29 06:15:24;;;;;;;3.58;1.75;;;;;;;;;;5072987;28;20029;-79
2022/07/29 06:17:50;;;;;;;3.00;1.65;;;;;;;;;;5068768;28;20443;-79
2022/07/29 06:20:17;;;;;;;4.32;2.17;;;;;;;;;;5073020;28;20028;-79
2022/07/29 06:22:43;;;;;;;6.00;2.13;;;;;;;;;;5072921;28;20467;-79
2022/07/29 06:25:09;;;;;;;4.18;2.47;;;;;;;;;;5072900;28;20059;-79
2022/07/29 06:27:35;;;;;;;3.00;1.77;;;;;;;;;;5072774;28;20020;-79
2022/07/29 06:30:01;;;;;;;8.50;1.83;;;;;;;;;;5072978;28;20082;-79
2022/07/29 06:32:27;;;;;;;3.88;1.90;;;;;;;;;;5072772;28;20028;-79
2022/07/29 06:34:53;;;;;;;4.22;2.17;;;;;;;;;;5072591;28;20032;-79
2022/07/29 06:37:19;;;;;;;3.05;1.80;;;;;;;;;;5072747;28;20047;-78
2022/07/29 06:39:45;;;;;;;5.00;1.83;;;;;;;;;;5072821;28;20019;-78
2022/07/29 06:42:11;;;;;;;3.58;1.90;;;;;;;;;;5071117;28;20074;-78
2022/07/29 06:44:37;;;;;;;2.33;1.80;;;;;;;;;;5072630;28;20032;-78
2022/07/29 06:47:03;;;;;;;4.22;1.77;;;;;;;;;;5072830;28;20091;-79
2022/07/29 06:49:30;;;;;;;5.80;1.95;;;;;;;;;;5072636;28;20664;-78
2022/07/29 06:51:56;;;;;;;3.03;1.88;;;;;;;;;;5072787;28;20359;-79
2022/07/29 06:54:22;;;;;;;3.35;1.98;;;;;;;;;;5072433;28;20024;-80
2022/07/29 06:56:48;;;;;;;4.82;1.90;;;;;;;;;;5072457;28;20016;-79
2022/07/29 06:59:14;;;;;;;4.45;2.42;;;;;;;;;;5072080;28;20090;-81
2022/07/29 07:01:42;;;;;;;5.43;2.08;;;;;;;;;;5072250;28;20024;-78
2022/07/29 07:04:11;;;;;;;4.60;1.95;;;;;;;;;;5061849;28;20024;-80
2022/07/29 07:06:37;;;;;;;3.63;1.80;;;;;;;;;;5071410;28;20020;-77
2022/07/29 07:09:04;;;;;;;3.90;2.30;;;;;;;;;;5072806;28;20032;-82
2022/07/29 07:11:30;;;;;;;4.00;2.00;;;;;;;;;;5072556;28;20039;-77
2022/07/29 07:13:56;;;;;;;6.75;2.03;;;;;;;;;;5071967;28;20032;-79
2022/07/29 07:16:22;;;;;;;8.75;2.25;;;;;;;;;;5072387;28;20024;-80
2022/07/29 07:18:48;;;;;;;3.88;2.05;;;;;;;;;;5072711;28;20013;-80
2022/07/29 07:21:14;;;;;;;4.13;1.88;;;;;;;;;;5072659;28;20100;-80
2022/07/29 07:23:40;;;;;;;4.93;2.03;;;;;;;;;;5072618;28;20856;-80
2022/07/29 07:26:06;;;;;;;4.90;2.10;;;;;;;;;;5072313;28;20025;-80
2022/07/29 07:28:32;;;;;;;7.38;3.33;;;;;;;;;;5070958;28;20032;-84
2022/07/29 07:30:58;;;;;;;5.40;1.92;;;;;;;;;;5069126;28;20024;-79
2022/07/29 07:33:25;;;;;;;4.50;2.05;;;;;;;;;;5070829;28;20532;-81
2022/07/29 07:35:51;;;;;;;4.70;1.90;;;;;;;;;;5070795;28;20032;-81
2022/07/29 07:38:17;;;;;;;5.22;2.00;;;;;;;;;;5069354;28;20055;-81
2022/07/29 07:40:43;;;;;;;3.80;2.10;;;;;;;;;;5070879;28;20046;-84
2022/07/29 07:43:09;;;;;;;4.95;2.42;;;;;;;;;;5068135;28;20087;-80
2022/07/29 07:45:36;;;;;;;6.03;2.17;;;;;;;;;;5066348;28;20024;-81
2022/07/29 07:48:03;;;;;;;6.30;2.05;;;;;;;;;;5068604;28;20044;-81
2022/07/29 07:50:29;;;;;;;5.50;2.13;;;;;;;;;;5069572;28;20028;-81
2022/07/29 07:52:59;;;;;;;5.05;2.50;;;;;;;;;;5070531;28;20050;-83
2022/07/29 07:55:25;;;;;;;6.72;2.35;;;;;;;;;;5070624;28;20132;-83
2022/07/29 07:57:51;;;;;;;4.68;2.40;;;;;;;;;;5071074;28;20062;-84
2022/07/29 08:00:17;;;;;;;5.20;2.63;;;;;;;;;;5070189;28;20351;-79
2022/07/29 08:02:44;;;;;;;6.15;2.22;;;;;;;;;;5070185;28;20017;-80
2022/07/29 08:05:12;;;;;;;3.78;2.40;;;;;;;;;;5070721;28;20025;-79
2022/07/29 08:07:38;;;;;;;8.70;2.78;;;;;;;;;;5070515;28;20029;-80
2022/07/29 08:10:05;;;;;;;4.22;2.13;;;;;;;;;;5071579;28;20672;-80
2022/07/29 08:12:31;;;;;;;6.45;2.28;;;;;;;;;;5071686;28;20024;-80
2022/07/29 08:14:57;;;;;;;7.95;2.30;;;;;;;;;;5071511;28;20379;-80
2022/07/29 08:17:23;;;;;;;8.18;2.10;;;;;;;;;;5071225;28;20017;-80
2022/07/29 08:19:49;;;;;;;7.80;2.17;;;;;;;;;;5073528;28;20096;-80
2022/07/29 08:22:15;;;;;;;4.50;2.25;;;;;;;;;;5075313;28;20063;-79
2022/07/29 08:24:52;;;;;;;6.03;2.40;;;;;;;;;;5075009;28;20023;-79
2022/07/29 08:27:19;;;;;;;4.93;2.10;;;;;;;;;;5074878;28;20050;-78
2022/07/29 08:29:45;;;;;;;4.68;2.00;;;;;;;;;;5075137;28;20020;-79
2022/07/29 08:32:11;;;;;;;8.70;2.10;;;;;;;;;;5075259;28;20021;-80
2022/07/29 08:34:37;;;;;;;5.93;1.75;;;;;;;;;;5074871;28;20024;-80
2022/07/29 08:37:03;;;;;;;5.03;2.13;;;;;;;;;;5075448;28;20035;-80
2022/07/29 08:39:29;;;;;;;8.65;2.10;;;;;;;;;;5074926;28;20451;-81
2022/07/29 08:41:55;;;;;;;4.88;2.13;;;;;;;;;;5074620;28;20012;-80
2022/07/29 08:44:22;;;;;;;7.97;2.00;;;;;;;;;;5074702;28;20473;-80
2022/07/29 08:46:49;;;;;;;6.65;1.98;;;;;;;;;;5074492;28;20020;-79
2022/07/29 08:49:15;;;;;;;2.90;1.70;;;;;;;;;;5075005;28;20355;-80
2022/07/29 08:51:41;;;;;;;4.97;2.20;;;;;;;;;;5074489;28;20033;-81
2022/07/29 08:54:08;;;;;;;7.75;2.15;;;;;;;;;;5076285;28;20028;-81
2022/07/29 08:56:35;;;;;;;5.22;1.70;;;;;;;;;;5075725;28;20029;-82
2022/07/29 08:59:04;;;;;;;7.82;2.25;;;;;;;;;;5076263;28;20070;-82
2022/07/29 09:01:32;;;;;;;8.70;2.08;;;;;;;;;;5074646;28;20120;-81
2022/07/29 09:04:00;;;;;;;5.38;1.92;;;;;;;;;;5074967;28;20017;-82
2022/07/29 09:06:31;;;;;;;8.18;2.80;;;;;;;;;;5073804;28;20035;-82
2022/07/29 09:08:58;;;;;;;8.27;2.15;;;;;;;;;;5055968;28;20040;-82
2022/07/29 09:11:25;;;;;;;7.47;2.13;;;;;;;;;;5054459;28;20066;-81
2022/07/29 09:13:51;;;;;;;5.38;2.50;;;;;;;;;;5054415;28;20044;-82
2022/07/29 09:16:17;;;;;;;5.60;2.47;;;;;;;;;;5054510;28;20455;-81
2022/07/29 09:18:44;;;;;;;17.88;2.72;;;;;;;;;;5054669;28;20016;-81
2022/07/29 09:24:09;;;;;;;3.60;1.80;;;;;;;;;;5075096;28;20102;-81
2022/07/29 09:26:43;;;;;;;8.73;2.42;;;;;;;;;;5074292;28;20021;-81
2022/07/29 09:29:10;;;;;;;5.55;2.45;;;;;;;;;;5074477;28;20142;-82
2022/07/29 09:31:38;;;;;;;5.72;2.33;;;;;;;;;;5074541;28;20423;-79
2022/07/29 09:34:04;;;;;;;7.70;1.85;;;;;;;;;;5073788;28;20028;-80
2022/07/29 09:36:30;;;;;;;5.47;2.75;;;;;;;;;;5073782;28;20029;-80
2022/07/29 09:39:00;;;;;;;6.95;1.90;;;;;;;;;;5073856;28;20024;-79
2022/07/29 09:41:27;;;;;;;5.22;2.00;;;;;;;;;;5073532;28;20023;-80
2022/07/29 09:43:59;;;;;;;5.97;1.80;;;;;;;;;;5073518;28;20036;-80
2022/07/29 09:46:26;;;;;;;8.00;1.83;;;;;;;;;;5073839;28;20025;-81
2022/07/29 09:49:09;;;;;;;3.95;1.67;;;;;;;;;;5073061;28;20051;-81
2022/07/29 09:51:35;;;;;;;6.60;1.63;;;;;;;;;;5069185;28;20020;-81
2022/07/29 09:54:03;;;;;;;5.78;1.77;;;;;;;;;;5073395;28;20385;-81
2022/07/29 09:56:42;;;;;;;5.60;1.77;;;;;;;;;;5072825;28;20032;-81
2022/07/29 09:59:10;;;;;;;6.70;1.60;;;;;;;;;;5073088;28;20024;-82
2022/07/29 10:01:36;;;;;;;6.82;1.95;;;;;;;;;;5072203;28;20096;-81
2022/07/29 10:04:03;;;;;;;6.63;2.05;;;;;;;;;;5072791;28;20060;-80
2022/07/29 10:06:29;;;;;;;5.90;1.85;;;;;;;;;;5072410;28;20032;-80
2022/07/29 10:08:55;;;;;;;10.60;2.10;;;;;;;;;;5072925;28;20024;-80
2022/07/29 10:11:21;;;;;;;6.20;2.33;;;;;;;;;;5071806;28;20693;-80
2022/07/29 10:13:48;;;;;;;6.18;2.10;;;;;;;;;;5071697;28;20782;-80
2022/07/29 10:16:15;;;;;;;5.82;1.90;;;;;;;;;;5061825;28;20417;-79
2022/07/29 10:18:42;;;;;;;8.38;2.10;;;;;;;;;;5059799;28;20139;-80
2022/07/29 10:21:09;;;;;;;8.48;2.08;;;;;;;;;;5060670;28;20029;-80
2022/07/29 10:23:36;;;;;;;4.95;1.90;;;;;;;;;;5064222;28;20088;-79
2022/07/29 10:26:02;;;;;;;5.25;1.88;;;;;;;;;;5072212;28;20036;-79
2022/07/29 10:28:28;;;;;;;4.88;2.03;;;;;;;;;;5071870;28;20466;-79
2022/07/29 10:30:59;;;;;;;6.00;2.22;;;;;;;;;;5071910;28;20036;-79
2022/07/29 10:33:37;;;;;;;5.13;2.27;;;;;;;;;;5066242;28;20130;-79
2022/07/29 10:36:16;;;;;;;6.43;1.92;;;;;;;;;;5071786;28;20028;-79
2022/07/29 10:38:47;;;;;;;6.20;2.00;;;;;;;;;;5071802;28;20021;-79
2022/07/29 10:41:29;;;;;;;5.10;1.55;;;;;;;;;;5067863;28;20139;-79
2022/07/29 10:44:05;;;;;;;10.18;2.30;;;;;;;;;;5051805;28;20044;-80
2022/07/29 10:46:36;;;;;;;5.55;1.98;;;;;;;;;;5051747;28;20451;-76
2022/07/29 10:49:07;;;;;;;7.70;1.80;;;;;;;;;;5051707;28;20028;-76
2022/07/29 10:51:52;;;;;;;7.80;1.75;;;;;;;;;;5051449;28;20029;-76
2022/07/29 10:54:19;;;;;;;8.90;2.60;;;;;;;;;;5056868;28;20471;-77
2022/07/29 10:56:45;;;;;;;5.07;2.28;;;;;;;;;;5051735;28;20021;-76
2022/07/29 10:59:20;;;;;;;9.68;2.53;;;;;;;;;;5051415;28;20021;-76
2022/07/29 11:01:47;;;;;;;9.65;1.67;;;;;;;;;;5052588;28;20198;-75
2022/07/29 11:04:13;;;;;;;3.30;1.50;;;;;;;;;;5051597;28;20103;-78
2022/07/29 11:06:58;;;;;;;4.57;1.95;;;;;;;;;;5051202;28;20087;-75
2022/07/29 11:09:24;;;;;;;6.80;2.22;;;;;;;;;;5053520;28;20104;-75
2022/07/29 11:11:50;;;;;;;6.05;1.90;;;;;;;;;;5052058;28;20107;-75
2022/07/29 11:14:17;;;;;;;8.45;2.00;;;;;;;;;;5051385;28;20061;-75
2022/07/29 11:17:13;;;;;;;9.05;1.58;;;;;;;;;;5060617;28;20013;-74
2022/07/29 11:19:41;;;;;;;10.75;1.50;;;;;;;;;;5049468;28;20364;-75
2022/07/29 11:22:08;;;;;;;8.57;1.50;;;;;;;;;;5059403;28;20107;-75
2022/07/29 11:24:35;;;;;;;5.15;1.58;;;;;;;;;;5073781;28;20056;-75
2022/07/29 11:27:07;;;;;;;5.60;1.73;;;;;;;;;;5051057;28;20053;-76
2022/07/29 11:29:35;;;;;;;8.13;1.70;;;;;;;;;;5059393;28;20024;-76
2022/07/29 11:32:13;;;;;;;7.50;1.80;;;;;;;;;;5071190;28;20028;-75
2022/07/29 11:34:40;;;;;;;5.22;1.75;;;;;;;;;;5071665;28;20027;-82
2022/07/29 11:37:09;;;;;;;4.03;1.88;;;;;;;;;;5070265;28;20345;-79
2022/07/29 11:39:37;;;;;;;5.72;1.65;;;;;;;;;;5070915;28;20035;-78
2022/07/29 11:42:21;;;;;;;6.35;1.77;;;;;;;;;;5070337;28;20020;-78
2022/07/29 11:45:06;;;;;;;5.20;1.70;;;;;;;;;;5066565;28;20036;-78
2022/07/29 11:47:40;;;;;;;7.53;2.15;;;;;;;;;;5068068;28;20120;-79
2022/07/29 11:50:10;;;;;;;2.85;1.40;;;;;;;;;;5067293;28;20127;-79
2022/07/29 11:52:44;;;;;;;4.22;1.52;;;;;;;;;;5069976;28;20017;-78
2022/07/29 11:55:12;;;;;;;3.90;1.40;;;;;;;;;;5072416;28;20020;-79
2022/07/29 11:57:46;;;;;;;9.05;2.13;;;;;;;;;;5074496;28;20043;-78
2022/07/29 12:00:14;;;;;;;2.10;1.38;;;;;;;;;;5072859;28;20071;-79
2022/07/29 12:02:44;;;;;;;2.80;1.50;;;;;;;;;;5074418;28;20017;-79
2022/07/29 12:05:13;;;;;;;4.03;1.50;;;;;;;;;;5074498;28;20021;-79
2022/07/29 12:07:40;;;;;;;8.13;1.35;;;;;;;;;;5063258;28;20024;-79
2022/07/29 12:10:07;;;;;;;3.72;1.42;;;;;;;;;;5058202;28;20044;-79
2022/07/29 12:12:33;;;;;;;4.43;1.48;;;;;;;;;;5074424;28;20453;-79
2022/07/29 12:15:10;;;;;;;3.88;1.67;;;;;;;;;;5074613;28;20032;-79
2022/07/29 12:17:37;;;;;;;4.43;1.55;;;;;;;;;;5074696;28;20016;-79
2022/07/29 12:20:04;;;;;;;15.00;3.28;;;;;;;;;;5074612;28;20458;-79
2022/07/29 12:22:31;;;;;;;6.80;1.73;;;;;;;;;;5074881;28;20024;-80
2022/07/29 12:25:02;;;;;;;5.85;1.60;;;;;;;;;;5074845;28;20024;-79
2022/07/29 12:27:28;;;;;;;6.13;1.80;;;;;;;;;;5074441;28;20031;-78
2022/07/29 12:29:59;;;;;;;3.95;1.60;;;;;;;;;;5074435;28;20370;-79
2022/07/29 12:32:31;;;;;;;3.97;1.60;;;;;;;;;;5073619;28;20028;-78
2022/07/29 12:34:57;;;;;;;6.80;1.48;;;;;;;;;;5073823;28;20032;-79
2022/07/29 12:37:23;;;;;;;7.07;1.48;;;;;;;;;;5073756;28;20094;-79
2022/07/29 12:39:50;;;;;;;4.70;1.77;;;;;;;;;;5074289;28;20017;-77
2022/07/29 12:42:17;;;;;;;9.32;2.17;;;;;;;;;;5073720;28;20486;-77
2022/07/29 12:44:47;;;;;;;6.70;1.80;;;;;;;;;;5073557;28;20024;-78
2022/07/29 12:47:13;;;;;;;6.93;2.00;;;;;;;;;;5073700;28;20435;-78
2022/07/29 12:49:39;;;;;;;7.28;1.73;;;;;;;;;;5073653;28;20078;-78
2022/07/29 12:52:24;;;;;;;4.50;1.85;;;;;;;;;;5073668;28;20013;-79
2022/07/29 12:54:50;;;;;;;8.52;1.90;;;;;;;;;;5070954;28;20025;-78
2022/07/29 12:57:16;;;;;;;7.18;1.95;;;;;;;;;;5073535;28;20040;-78
2022/07/29 12:59:43;;;;;;;5.30;2.28;;;;;;;;;;5073628;28;20086;-79
2022/07/29 13:02:21;;;;;;;9.63;2.53;;;;;;;;;;5070860;28;20407;-79
2022/07/29 13:04:55;;;;;;;7.40;2.00;;;;;;;;;;5072971;28;20017;-79
2022/07/29 13:07:24;;;;;;;6.10;2.25;;;;;;;;;;5073722;28;20502;-79
2022/07/29 13:09:50;;;;;;;8.52;2.05;;;;;;;;;;5071472;28;20041;-79
2022/07/29 13:12:16;;;;;;;7.40;1.98;;;;;;;;;;5073862;28;20055;-79
2022/07/29 13:14:43;;;;;;;10.55;2.20;;;;;;;;;;5073578;28;20029;-78
2022/07/29 13:17:11;;;;;;;5.13;1.70;;;;;;;;;;5073854;28;20013;-79
2022/07/29 13:19:37;;;;;;;6.38;2.35;;;;;;;;;;5074058;28;20047;-83
2022/07/29 13:22:03;;;;;;;5.25;1.80;;;;;;;;;;5073540;28;20012;-80
2022/07/29 13:24:30;;;;;;;4.40;2.03;;;;;;;;;;5073372;28;20067;-79
2022/07/29 13:26:56;;;;;;;11.40;2.42;;;;;;;;;;5072999;28;20028;-79
2022/07/29 13:29:22;;;;;;;10.77;2.45;;;;;;;;;;5072947;28;20024;-80
2022/07/29 13:31:48;;;;;;;10.27;2.13;;;;;;;;;;5072815;28;20107;-79
2022/07/29 13:34:14;;;;;;;9.02;2.00;;;;;;;;;;5061340;28;20017;-78
2022/07/29 13:36:40;;;;;;;7.10;2.08;;;;;;;;;;5072309;28;20504;-77
2022/07/29 13:39:06;;;;;;;7.32;2.25;;;;;;;;;;5072616;28;20375;-77
2022/07/29 13:41:32;;;;;;;5.30;1.73;;;;;;;;;;5071921;28;20028;-76
2022/07/29 13:43:58;;;;;;;4.47;1.80;;;;;;;;;;5071982;28;20048;-76
2022/07/29 13:46:24;;;;;;;6.63;2.63;;;;;;;;;;5071893;28;20455;-77
2022/07/29 13:48:50;;;;;;;7.93;2.05;;;;;;;;;;5072196;28;20100;-76
2022/07/29 13:51:16;;;;;;;6.68;2.05;;;;;;;;;;5069906;28;20554;-77
2022/07/29 13:53:42;;;;;;;13.27;2.28;;;;;;;;;;5071895;28;20375;-76
2022/07/29 13:56:08;;;;;;;4.45;2.05;;;;;;;;;;5071845;28;20020;-76
2022/07/29 13:58:34;;;;;;;5.32;1.77;;;;;;;;;;5071916;28;20101;-76
2022/07/29 14:01:01;;;;;;;5.22;2.13;;;;;;;;;;5071753;28;20031;-79
2022/07/29 14:03:27;;;;;;;5.57;2.70;;;;;;;;;;5072182;28;20059;-78
2022/07/29 14:05:53;;;;;;;12.20;2.00;;;;;;;;;;5072535;28;20043;-79
2022/07/29 14:08:19;;;;;;;4.38;1.85;;;;;;;;;;5062629;28;20099;-80
2022/07/29 14:10:45;;;;;;;5.88;2.13;;;;;;;;;;5072782;28;20017;-80
2022/07/29 14:13:11;;;;;;;4.60;1.90;;;;;;;;;;5072494;28;20799;-80
2022/07/29 14:15:37;;;;;;;4.63;1.92;;;;;;;;;;5072509;28;20037;-78
2022/07/29 14:18:04;;;;;;;3.10;2.10;;;;;;;;;;5072428;28;20045;-77
2022/07/29 14:20:30;;;;;;;4.40;1.77;;;;;;;;;;5072647;28;20025;-77
2022/07/29 14:22:56;;;;;;;6.25;1.90;;;;;;;;;;5072610;28;20025;-80
2022/07/29 14:25:22;;;;;;;5.07;2.10;;;;;;;;;;5072406;28;20454;-78
2022/07/29 14:27:48;;;;;;;5.80;2.28;;;;;;;;;;5072880;28;20064;-79
2022/07/29 14:30:14;;;;;;;9.95;2.38;;;;;;;;;;5072371;28;20024;-77
2022/07/29 14:32:41;;;;;;;9.32;1.70;;;;;;;;;;5072123;28;20402;-78
2022/07/29 14:35:07;;;;;;;5.45;2.03;;;;;;;;;;5071465;28;20108;-79
2022/07/29 14:37:35;;;;;;;4.90;1.70;;;;;;;;;;5071234;28;20025;-78
2022/07/29 14:40:03;;;;;;;5.93;1.52;;;;;;;;;;5071817;28;20024;-78
2022/07/29 14:42:29;;;;;;;11.73;1.63;;;;;;;;;;5072219;28;20378;-81
2022/07/29 14:44:56;;;;;;;4.72;1.58;;;;;;;;;;5071529;28;20078;-79
2022/07/29 14:47:23;;;;;;;8.38;1.80;;;;;;;;;;5072081;28;20024;-78
2022/07/29 14:49:49;;;;;;;5.53;2.00;;;;;;;;;;5072642;28;20032;-82